sensor_id;sensor_type;location;lat;lon;timestamp;P1;P2;P0
26185;PMS7003;20067;48.764;9.176;2024-03-23T00:53:50;10.25;10.25;5.00
26185;PMS7003;20067;48.764;9.176;2024-03-23T00:56:16;11.00;11.00;7.00
26185;PMS7003;20067;48.764;9.176;2024-03-23T00:58:43;15.00;14.50;7.00
26185;PMS7003;20067;48.764;9.176;2024-03-23T01:01:08;13.50;13.50;8.00
26185;PMS7003;20067;48.764;9.176;2024-03-23T01:03:35;12.00;11.00;5.00
26185;PMS7003;20067;48.764;9.176;2024-03-23T01:06:01;10.75;10.00;5.00
26185;PMS7003;20067;48.764;9.176;2024-03-23T01:08:29;15.25;13.00;7.00
26185;PMS7003;20067;48.764;9.176;2024-03-23T01:10:58;16.25;14.25;7.00
26185;PMS7003;20067;48.764;9.176;2024-03-23T01:13:26;15.00;13.00;7.00
26185;PMS7003;20067;48.764;9.176;2024-03-23T01:15:53;10.00;10.00;5.00
26185;PMS7003;20067;48.764;9.176;2024-03-23T01:18:20;15.50;8.75;5.00
26185;PMS7003;20067;48.764;9.176;2024-03-23T01:20:47;13.50;11.00;5.50
26185;PMS7003;20067;48.764;9.176;2024-03-23T01:23:14;14.00;10.50;5.00
26185;PMS7003;20067;48.764;9.176;2024-03-23T01:25:40;10.00;10.00;5.25
26185;PMS7003;20067;48.764;9.176;2024-03-23T01:28:07;8.50;8.50;4.00
26185;PMS7003;20067;48.764;9.176;2024-03-23T01:30:33;8.00;8.00;2.25
26185;PMS7003;20067;48.764;9.176;2024-03-23T01:33:01;11.25;11.00;4.00
26185;PMS7003;20067;48.764;9.176;2024-03-23T01:35:27;12.50;12.00;5.75
26185;PMS7003;20067;48.764;9.176;2024-03-23T01:37:55;14.00;11.25;4.75
26185;PMS7003;20067;48.764;9.176;2024-03-23T01:40:21;13.00;9.00;4.00
26185;PMS7003;20067;48.764;9.176;2024-03-23T01:42:57;10.75;10.75;5.50
26185;PMS7003;20067;48.764;9.176;2024-03-23T01:45:23;10.75;10.00;4.00
26185;PMS7003;20067;48.764;9.176;2024-03-23T01:47:53;10.50;10.25;4.00
26185;PMS7003;20067;48.764;9.176;2024-03-23T01:50:19;11.00;10.00;5.00
26185;PMS7003;20067;48.764;9.176;2024-03-23T01:52:47;9.00;8.00;4.00
26185;PMS7003;20067;48.764;9.176;2024-03-23T01:55:13;8.00;8.00;4.00
26185;PMS7003;20067;48.764;9.176;2024-03-23T01:57:41;10.00;8.50;2.50
26185;PMS7003;20067;48.764;9.176;2024-03-23T02:00:07;10.50;10.00;4.00
26185;PMS7003;20067;48.764;9.176;2024-03-23T02:02:34;13.25;11.75;4.75
26185;PMS7003;20067;48.764;9.176;2024-03-23T02:05:00;8.00;8.00;4.00
26185;PMS7003;20067;48.764;9.176;2024-03-23T02:07:27;9.50;9.50;4.75
26185;PMS7003;20067;48.764;9.176;2024-03-23T02:09:52;10.00;8.00;5.00
26185;PMS7003;20067;48.764;9.176;2024-03-23T02:12:19;10.00;9.00;4.00
26185;PMS7003;20067;48.764;9.176;2024-03-23T02:14:46;8.00;8.00;4.00
26185;PMS7003;20067;48.764;9.176;2024-03-23T02:17:13;7.25;7.25;3.50
26185;PMS7003;20067;48.764;9.176;2024-03-23T02:19:38;8.00;8.00;4.25
26185;PMS7003;20067;48.764;9.176;2024-03-23T02:22:05;10.00;10.00;5.00
26185;PMS7003;20067;48.764;9.176;2024-03-23T02:24:31;7.75;7.50;2.00
26185;PMS7003;20067;48.764;9.176;2024-03-23T02:26:59;10.00;9.50;4.00
26185;PMS7003;20067;48.764;9.176;2024-03-23T02:29:24;7.00;7.00;3.50
26185;PMS7003;20067;48.764;9.176;2024-03-23T02:31:51;7.25;7.25;4.00
26185;PMS7003;20067;48.764;9.176;2024-03-23T02:34:17;11.00;10.00;4.50
26185;PMS7003;20067;48.764;9.176;2024-03-23T02:36:43;9.50;7.75;3.50
26185;PMS7003;20067;48.764;9.176;2024-03-23T02:39:09;9.50;7.50;2.00
26185;PMS7003;20067;48.764;9.176;2024-03-23T02:41:36;6.00;6.00;2.00
26185;PMS7003;20067;48.764;9.176;2024-03-23T02:44:02;8.50;8.50;4.00
26185;PMS7003;20067;48.764;9.176;2024-03-23T02:46:29;10.75;8.00;4.00
26185;PMS7003;20067;48.764;9.176;2024-03-23T02:48:54;9.50;9.50;5.00
26185;PMS7003;20067;48.764;9.176;2024-03-23T02:51:22;8.50;8.00;4.75
26185;PMS7003;20067;48.764;9.176;2024-03-23T02:53:48;13.25;12.25;6.50
26185;PMS7003;20067;48.764;9.176;2024-03-23T02:56:14;13.00;13.00;7.00
26185;PMS7003;20067;48.764;9.176;2024-03-23T02:58:42;10.25;9.50;4.25
26185;PMS7003;20067;48.764;9.176;2024-03-23T03:01:09;10.75;10.00;5.25
26185;PMS7003;20067;48.764;9.176;2024-03-23T03:03:34;8.50;8.50;4.75
26185;PMS7003;20067;48.764;9.176;2024-03-23T03:06:01;8.00;8.00;4.00
26185;PMS7003;20067;48.764;9.176;2024-03-23T03:08:27;9.00;9.00;4.00
26185;PMS7003;20067;48.764;9.176;2024-03-23T03:10:54;13.00;9.00;4.00
26185;PMS7003;20067;48.764;9.176;2024-03-23T03:13:19;9.50;9.50;4.25
26185;PMS7003;20067;48.764;9.176;2024-03-23T03:15:46;10.00;9.75;4.75
26185;PMS7003;20067;48.764;9.176;2024-03-23T03:18:12;10.00;10.00;4.25
26185;PMS7003;20067;48.764;9.176;2024-03-23T03:20:39;8.25;8.25;5.00
26185;PMS7003;20067;48.764;9.176;2024-03-23T03:23:05;13.00;11.00;5.00
26185;PMS7003;20067;48.764;9.176;2024-03-23T03:25:32;10.00;8.00;4.50
26185;PMS7003;20067;48.764;9.176;2024-03-23T03:27:58;11.75;10.00;5.00
26185;PMS7003;20067;48.764;9.176;2024-03-23T03:30:25;11.00;9.50;4.00
26185;PMS7003;20067;48.764;9.176;2024-03-23T03:32:52;9.50;8.50;4.25
26185;PMS7003;20067;48.764;9.176;2024-03-23T03:35:20;9.75;9.75;4.75
26185;PMS7003;20067;48.764;9.176;2024-03-23T03:37:45;8.00;8.00;4.00
26185;PMS7003;20067;48.764;9.176;2024-03-23T03:40:12;9.00;8.00;4.00
26185;PMS7003;20067;48.764;9.176;2024-03-23T03:42:39;9.00;8.00;4.00
26185;PMS7003;20067;48.764;9.176;2024-03-23T03:45:07;9.50;8.00;4.00
26185;PMS7003;20067;48.764;9.176;2024-03-23T03:47:32;10.00;10.00;5.00
26185;PMS7003;20067;48.764;9.176;2024-03-23T03:49:59;10.00;8.50;4.00
26185;PMS7003;20067;48.764;9.176;2024-03-23T03:52:25;8.50;8.00;4.00
26185;PMS7003;20067;48.764;9.176;2024-03-23T03:54:55;9.00;9.00;4.00
26185;PMS7003;20067;48.764;9.176;2024-03-23T03:57:27;7.00;7.00;2.00
26185;PMS7003;20067;48.764;9.176;2024-03-23T03:59:54;10.25;10.25;5.00
26185;PMS7003;20067;48.764;9.176;2024-03-23T04:02:20;10.00;9.50;4.00
26185;PMS7003;20067;48.764;9.176;2024-03-23T04:04:46;8.50;7.50;4.00
26185;PMS7003;20067;48.764;9.176;2024-03-23T04:07:12;9.00;8.25;3.75
26185;PMS7003;20067;48.764;9.176;2024-03-23T04:09:39;8.50;8.00;4.00
26185;PMS7003;20067;48.764;9.176;2024-03-23T04:12:05;10.00;10.00;5.00
26185;PMS7003;20067;48.764;9.176;2024-03-23T04:14:32;7.25;7.25;4.00
26185;PMS7003;20067;48.764;9.176;2024-03-23T04:16:57;11.75;10.00;5.00
26185;PMS7003;20067;48.764;9.176;2024-03-23T04:19:24;9.00;8.50;4.00
26185;PMS7003;20067;48.764;9.176;2024-03-23T04:21:50;11.00;10.00;4.00
26185;PMS7003;20067;48.764;9.176;2024-03-23T04:24:16;9.00;9.00;4.50
26185;PMS7003;20067;48.764;9.176;2024-03-23T04:26:44;9.00;8.25;4.00
26185;PMS7003;20067;48.764;9.176;2024-03-23T04:29:11;10.00;10.00;4.00
26185;PMS7003;20067;48.764;9.176;2024-03-23T04:31:37;10.25;10.00;4.00
26185;PMS7003;20067;48.764;9.176;2024-03-23T04:34:03;10.00;10.00;4.25
26185;PMS7003;20067;48.764;9.176;2024-03-23T04:36:30;10.25;10.00;2.00
26185;PMS7003;20067;48.764;9.176;2024-03-23T04:38:59;8.00;8.00;4.00
26185;PMS7003;20067;48.764;9.176;2024-03-23T04:41:26;8.50;8.00;4.00
26185;PMS7003;20067;48.764;9.176;2024-03-23T04:43:53;8.50;8.00;4.50
26185;PMS7003;20067;48.764;9.176;2024-03-23T04:46:20;8.00;8.00;2.00
26185;PMS7003;20067;48.764;9.176;2024-03-23T04:48:46;9.00;9.00;4.00
26185;PMS7003;20067;48.764;9.176;2024-03-23T04:51:22;8.50;8.50;3.50
26185;PMS7003;20067;48.764;9.176;2024-03-23T04:53:49;8.00;7.00;2.25
26185;PMS7003;20067;48.764;9.176;2024-03-23T04:56:15;9.50;8.50;4.00
26185;PMS7003;20067;48.764;9.176;2024-03-23T04:58:43;13.00;10.25;4.25
26185;PMS7003;20067;48.764;9.176;2024-03-23T05:01:10;10.25;10.00;4.25
26185;PMS7003;20067;48.764;9.176;2024-03-23T05:03:37;15.50;13.25;7.00
26185;PMS7003;20067;48.764;9.176;2024-03-23T05:06:03;11.25;11.25;5.25
26185;PMS7003;20067;48.764;9.176;2024-03-23T05:08:30;13.25;11.50;5.00
26185;PMS7003;20067;48.764;9.176;2024-03-23T05:10:56;13.50;13.25;6.50
26185;PMS7003;20067;48.764;9.176;2024-03-23T05:13:23;18.25;16.00;7.00
26185;PMS7003;20067;48.764;9.176;2024-03-23T05:15:53;20.75;20.00;11.25
26185;PMS7003;20067;48.764;9.176;2024-03-23T05:18:20;19.75;19.25;10.75
26185;PMS7003;20067;48.764;9.176;2024-03-23T05:20:47;19.75;16.50;9.75
26185;PMS7003;20067;48.764;9.176;2024-03-23T05:23:13;20.25;18.00;10.00
26185;PMS7003;20067;48.764;9.176;2024-03-23T05:25:40;18.50;15.75;8.00
26185;PMS7003;20067;48.764;9.176;2024-03-23T05:28:06;23.00;20.75;11.00
26185;PMS7003;20067;48.764;9.176;2024-03-23T05:30:32;26.00;21.25;11.75
26185;PMS7003;20067;48.764;9.176;2024-03-23T05:32:58;23.00;19.75;11.75
26185;PMS7003;20067;48.764;9.176;2024-03-23T05:35:25;25.75;19.75;10.00
26185;PMS7003;20067;48.764;9.176;2024-03-23T05:37:51;23.75;19.50;11.00
26185;PMS7003;20067;48.764;9.176;2024-03-23T05:40:17;23.50;21.00;12.00
26185;PMS7003;20067;48.764;9.176;2024-03-23T05:42:43;23.75;21.75;11.75
26185;PMS7003;20067;48.764;9.176;2024-03-23T05:45:10;29.25;21.75;12.00
26185;PMS7003;20067;48.764;9.176;2024-03-23T05:47:36;25.75;20.50;11.50
26185;PMS7003;20067;48.764;9.176;2024-03-23T05:50:03;21.75;20.75;13.00
26185;PMS7003;20067;48.764;9.176;2024-03-23T05:52:29;22.50;20.50;10.50
26185;PMS7003;20067;48.764;9.176;2024-03-23T05:54:56;24.50;18.25;9.50
26185;PMS7003;20067;48.764;9.176;2024-03-23T05:57:23;19.50;18.25;9.25
26185;PMS7003;20067;48.764;9.176;2024-03-23T05:59:50;15.25;13.50;8.50
26185;PMS7003;20067;48.764;9.176;2024-03-23T06:02:16;17.50;17.50;8.75
26185;PMS7003;20067;48.764;9.176;2024-03-23T06:04:45;15.25;13.00;6.00
26185;PMS7003;20067;48.764;9.176;2024-03-23T06:07:11;20.00;13.50;6.75
26185;PMS7003;20067;48.764;9.176;2024-03-23T06:09:39;11.00;11.00;4.00
26185;PMS7003;20067;48.764;9.176;2024-03-23T06:12:08;13.50;12.25;6.50
26185;PMS7003;20067;48.764;9.176;2024-03-23T06:14:35;17.50;12.75;6.75
26185;PMS7003;20067;48.764;9.176;2024-03-23T06:17:00;12.00;10.50;4.50
26185;PMS7003;20067;48.764;9.176;2024-03-23T06:19:27;14.25;13.25;6.75
26185;PMS7003;20067;48.764;9.176;2024-03-23T06:21:53;13.75;11.75;6.00
26185;PMS7003;20067;48.764;9.176;2024-03-23T06:24:25;12.00;9.25;4.00
26185;PMS7003;20067;48.764;9.176;2024-03-23T06:26:50;9.25;9.25;4.00
26185;PMS7003;20067;48.764;9.176;2024-03-23T06:29:17;9.75;9.00;4.00
26185;PMS7003;20067;48.764;9.176;2024-03-23T06:31:43;8.00;7.00;3.00
26185;PMS7003;20067;48.764;9.176;2024-03-23T06:34:10;7.50;7.50;3.00
26185;PMS7003;20067;48.764;9.176;2024-03-23T06:36:35;4.00;4.00;1.00
26185;PMS7003;20067;48.764;9.176;2024-03-23T06:39:03;6.25;6.25;2.00
26185;PMS7003;20067;48.764;9.176;2024-03-23T06:41:30;7.50;6.00;1.00
26185;PMS7003;20067;48.764;9.176;2024-03-23T06:43:57;4.50;4.50;0.50
26185;PMS7003;20067;48.764;9.176;2024-03-23T06:46:22;4.00;4.00;1.00
26185;PMS7003;20067;48.764;9.176;2024-03-23T06:48:49;4.00;3.50;0.25
26185;PMS7003;20067;48.764;9.176;2024-03-23T06:51:15;3.75;3.75;0.50
26185;PMS7003;20067;48.764;9.176;2024-03-23T06:53:41;3.00;3.00;0.00
26185;PMS7003;20067;48.764;9.176;2024-03-23T06:56:07;4.00;4.00;0.50
26185;PMS7003;20067;48.764;9.176;2024-03-23T06:58:34;4.00;4.00;1.00
26185;PMS7003;20067;48.764;9.176;2024-03-23T07:01:00;4.00;4.00;0.00
26185;PMS7003;20067;48.764;9.176;2024-03-23T07:03:27;4.00;4.00;0.00
26185;PMS7003;20067;48.764;9.176;2024-03-23T07:05:53;3.00;3.00;0.00
26185;PMS7003;20067;48.764;9.176;2024-03-23T07:08:24;6.00;4.00;1.00
26185;PMS7003;20067;48.764;9.176;2024-03-23T07:10:50;3.00;3.00;0.00
26185;PMS7003;20067;48.764;9.176;2024-03-23T07:13:17;3.00;3.00;0.00
26185;PMS7003;20067;48.764;9.176;2024-03-23T07:15:42;3.00;3.00;0.00
26185;PMS7003;20067;48.764;9.176;2024-03-23T07:18:09;3.00;3.00;0.00
26185;PMS7003;20067;48.764;9.176;2024-03-23T07:20:35;3.00;3.00;0.00
26185;PMS7003;20067;48.764;9.176;2024-03-23T07:23:02;3.00;3.00;0.00
26185;PMS7003;20067;48.764;9.176;2024-03-23T07:25:29;3.50;3.00;0.00
26185;PMS7003;20067;48.764;9.176;2024-03-23T07:27:56;3.00;3.00;0.00
26185;PMS7003;20067;48.764;9.176;2024-03-23T07:30:22;4.00;3.00;0.00
26185;PMS7003;20067;48.764;9.176;2024-03-23T07:32:49;3.00;3.00;0.00
26185;PMS7003;20067;48.764;9.176;2024-03-23T07:35:14;3.00;3.00;0.00
26185;PMS7003;20067;48.764;9.176;2024-03-23T07:37:41;3.00;3.00;0.00
26185;PMS7003;20067;48.764;9.176;2024-03-23T07:40:08;3.00;3.00;0.00
26185;PMS7003;20067;48.764;9.176;2024-03-23T07:42:35;3.00;3.00;0.00
26185;PMS7003;20067;48.764;9.176;2024-03-23T07:45:01;3.00;3.00;0.00
26185;PMS7003;20067;48.764;9.176;2024-03-23T07:47:27;3.00;3.00;0.00
26185;PMS7003;20067;48.764;9.176;2024-03-23T07:49:56;3.00;3.00;0.00
26185;PMS7003;20067;48.764;9.176;2024-03-23T07:52:24;6.00;3.00;0.00
26185;PMS7003;20067;48.764;9.176;2024-03-23T07:54:53;3.00;3.00;0.00
26185;PMS7003;20067;48.764;9.176;2024-03-23T07:57:19;3.00;3.00;0.00
26185;PMS7003;20067;48.764;9.176;2024-03-23T07:59:45;3.00;3.00;0.00
26185;PMS7003;20067;48.764;9.176;2024-03-23T08:02:12;3.00;3.00;0.00
26185;PMS7003;20067;48.764;9.176;2024-03-23T08:04:37;3.50;3.50;0.00
26185;PMS7003;20067;48.764;9.176;2024-03-23T08:07:04;3.00;3.00;0.00
26185;PMS7003;20067;48.764;9.176;2024-03-23T08:09:32;3.00;3.00;0.00
26185;PMS7003;20067;48.764;9.176;2024-03-23T08:11:58;4.50;4.00;0.75
26185;PMS7003;20067;48.764;9.176;2024-03-23T08:14:24;3.00;3.00;0.00
26185;PMS7003;20067;48.764;9.176;2024-03-23T08:16:51;3.75;3.75;0.25
26185;PMS7003;20067;48.764;9.176;2024-03-23T08:19:16;3.00;3.00;0.00
26185;PMS7003;20067;48.764;9.176;2024-03-23T08:21:43;7.00;6.00;1.00
26185;PMS7003;20067;48.764;9.176;2024-03-23T08:24:09;4.00;4.00;1.00
26185;PMS7003;20067;48.764;9.176;2024-03-23T08:26:35;5.00;3.50;0.00
26185;PMS7003;20067;48.764;9.176;2024-03-23T08:29:02;3.75;3.75;0.00
26185;PMS7003;20067;48.764;9.176;2024-03-23T08:31:29;5.00;4.00;0.25
26185;PMS7003;20067;48.764;9.176;2024-03-23T08:33:55;4.00;4.00;0.25
26185;PMS7003;20067;48.764;9.176;2024-03-23T08:36:22;4.00;4.00;0.00
26185;PMS7003;20067;48.764;9.176;2024-03-23T08:38:48;4.00;4.00;0.00
26185;PMS7003;20067;48.764;9.176;2024-03-23T08:41:18;4.00;4.00;0.50
26185;PMS7003;20067;48.764;9.176;2024-03-23T08:43:44;8.00;7.00;3.00
26185;PMS7003;20067;48.764;9.176;2024-03-23T08:46:14;5.00;5.00;1.00
26185;PMS7003;20067;48.764;9.176;2024-03-23T08:48:44;4.00;4.00;0.25
26185;PMS7003;20067;48.764;9.176;2024-03-23T08:51:14;4.00;4.00;1.00
26185;PMS7003;20067;48.764;9.176;2024-03-23T08:53:41;4.00;4.00;0.00
26185;PMS7003;20067;48.764;9.176;2024-03-23T08:56:09;5.00;3.50;0.25
26185;PMS7003;20067;48.764;9.176;2024-03-23T08:58:35;5.75;5.75;1.75
26185;PMS7003;20067;48.764;9.176;2024-03-23T09:01:08;4.00;4.00;0.00
26185;PMS7003;20067;48.764;9.176;2024-03-23T09:03:34;5.00;3.50;0.00
26185;PMS7003;20067;48.764;9.176;2024-03-23T09:06:06;4.00;2.00;0.00
26185;PMS7003;20067;48.764;9.176;2024-03-23T09:08:32;7.00;4.00;0.50
26185;PMS7003;20067;48.764;9.176;2024-03-23T09:11:03;3.00;3.00;0.00
26185;PMS7003;20067;48.764;9.176;2024-03-23T09:13:31;3.00;3.00;0.00
26185;PMS7003;20067;48.764;9.176;2024-03-23T09:15:59;3.75;3.50;0.00
26185;PMS7003;20067;48.764;9.176;2024-03-23T09:18:25;4.00;4.00;1.00
26185;PMS7003;20067;48.764;9.176;2024-03-23T09:20:51;3.75;3.75;0.25
26185;PMS7003;20067;48.764;9.176;2024-03-23T09:23:18;6.00;4.00;1.00
26185;PMS7003;20067;48.764;9.176;2024-03-23T09:25:46;4.00;4.00;1.00
26185;PMS7003;20067;48.764;9.176;2024-03-23T09:28:12;5.50;4.00;1.00
26185;PMS7003;20067;48.764;9.176;2024-03-23T09:30:38;7.00;6.00;1.00
26185;PMS7003;20067;48.764;9.176;2024-03-23T09:33:08;7.00;7.00;3.00
26185;PMS7003;20067;48.764;9.176;2024-03-23T09:35:38;10.00;7.00;1.00
26185;PMS7003;20067;48.764;9.176;2024-03-23T09:38:04;7.00;7.00;1.50
26185;PMS7003;20067;48.764;9.176;2024-03-23T09:40:32;9.75;7.00;3.00
26185;PMS7003;20067;48.764;9.176;2024-03-23T09:42:58;7.00;7.00;3.00
26185;PMS7003;20067;48.764;9.176;2024-03-23T09:45:28;6.00;5.50;1.00
26185;PMS7003;20067;48.764;9.176;2024-03-23T09:47:55;11.50;7.00;3.00
26185;PMS7003;20067;48.764;9.176;2024-03-23T09:50:22;8.00;6.50;1.00
26185;PMS7003;20067;48.764;9.176;2024-03-23T09:52:48;7.00;7.00;1.00
26185;PMS7003;20067;48.764;9.176;2024-03-23T09:55:15;7.00;6.25;2.00
26185;PMS7003;20067;48.764;9.176;2024-03-23T09:57:41;8.00;7.25;1.00
26185;PMS7003;20067;48.764;9.176;2024-03-23T10:00:08;7.00;7.00;3.00
26185;PMS7003;20067;48.764;9.176;2024-03-23T10:02:34;7.00;6.25;1.00
26185;PMS7003;20067;48.764;9.176;2024-03-23T10:05:01;9.00;6.25;1.00
26185;PMS7003;20067;48.764;9.176;2024-03-23T10:07:27;11.50;7.50;3.00
26185;PMS7003;20067;48.764;9.176;2024-03-23T10:09:54;8.50;7.00;3.00
26185;PMS7003;20067;48.764;9.176;2024-03-23T10:12:20;14.25;12.25;3.00
26185;PMS7003;20067;48.764;9.176;2024-03-23T10:14:48;17.75;16.00;3.00
26185;PMS7003;20067;48.764;9.176;2024-03-23T10:17:15;13.50;13.50;3.00
26185;PMS7003;20067;48.764;9.176;2024-03-23T10:19:46;11.00;11.00;2.50
26185;PMS7003;20067;48.764;9.176;2024-03-23T10:22:17;11.25;11.25;3.50
26185;PMS7003;20067;48.764;9.176;2024-03-23T10:24:48;11.75;11.25;4.00
26185;PMS7003;20067;48.764;9.176;2024-03-23T10:27:21;12.00;12.00;3.50
26185;PMS7003;20067;48.764;9.176;2024-03-23T10:29:48;13.75;12.00;4.00
26185;PMS7003;20067;48.764;9.176;2024-03-23T10:32:15;12.00;10.25;3.00
26185;PMS7003;20067;48.764;9.176;2024-03-23T10:34:43;11.75;11.00;3.25
26185;PMS7003;20067;48.764;9.176;2024-03-23T10:37:10;11.75;11.00;1.00
26185;PMS7003;20067;48.764;9.176;2024-03-23T10:39:39;12.50;12.50;3.00
26185;PMS7003;20067;48.764;9.176;2024-03-23T10:42:08;11.50;11.50;1.00
26185;PMS7003;20067;48.764;9.176;2024-03-23T10:44:36;13.00;11.00;1.00
26185;PMS7003;20067;48.764;9.176;2024-03-23T10:47:03;12.50;12.25;1.50
26185;PMS7003;20067;48.764;9.176;2024-03-23T10:49:32;11.75;11.75;3.00
26185;PMS7003;20067;48.764;9.176;2024-03-23T10:52:04;12.00;12.00;3.00
26185;PMS7003;20067;48.764;9.176;2024-03-23T10:54:32;12.50;11.75;2.50
26185;PMS7003;20067;48.764;9.176;2024-03-23T10:57:14;11.75;10.50;3.25
26185;PMS7003;20067;48.764;9.176;2024-03-23T10:59:46;18.00;18.00;3.00
26185;PMS7003;20067;48.764;9.176;2024-03-23T11:02:21;16.00;15.00;1.00
26185;PMS7003;20067;48.764;9.176;2024-03-23T11:04:48;12.00;11.50;0.75
26185;PMS7003;20067;48.764;9.176;2024-03-23T11:09:53;10.00;10.00;0.00
26185;PMS7003;20067;48.764;9.176;2024-03-23T11:14:55;11.50;11.50;1.75
26185;PMS7003;20067;48.764;9.176;2024-03-23T11:17:24;8.50;8.50;1.00
26185;PMS7003;20067;48.764;9.176;2024-03-23T11:19:58;10.25;9.50;2.00
26185;PMS7003;20067;48.764;9.176;2024-03-23T11:28:10;12.75;9.00;1.00
26185;PMS7003;20067;48.764;9.176;2024-03-23T11:30:36;13.25;9.50;3.00
26185;PMS7003;20067;48.764;9.176;2024-03-23T11:33:03;7.25;7.25;0.00
26185;PMS7003;20067;48.764;9.176;2024-03-23T11:35:30;6.75;6.75;0.00
26185;PMS7003;20067;48.764;9.176;2024-03-23T11:40:27;7.75;7.50;1.00
26185;PMS7003;20067;48.764;9.176;2024-03-23T11:43:00;7.00;7.00;1.00
26185;PMS7003;20067;48.764;9.176;2024-03-23T11:45:27;8.50;8.50;1.00
26185;PMS7003;20067;48.764;9.176;2024-03-23T11:48:07;8.75;7.00;1.00
26185;PMS7003;20067;48.764;9.176;2024-03-23T11:50:35;7.25;7.00;2.00
26185;PMS7003;20067;48.764;9.176;2024-03-23T11:58:10;6.00;6.00;0.75
26185;PMS7003;20067;48.764;9.176;2024-03-23T12:00:37;7.00;7.00;1.00
26185;PMS7003;20067;48.764;9.176;2024-03-23T12:03:04;6.00;6.00;1.50
26185;PMS7003;20067;48.764;9.176;2024-03-23T12:05:31;6.50;6.50;0.00
26185;PMS7003;20067;48.764;9.176;2024-03-23T12:10:49;8.00;7.00;1.00
26185;PMS7003;20067;48.764;9.176;2024-03-23T12:13:29;7.00;7.00;1.00
26185;PMS7003;20067;48.764;9.176;2024-03-23T12:15:58;6.00;6.00;1.00
26185;PMS7003;20067;48.764;9.176;2024-03-23T12:18:34;7.00;7.00;1.00
26185;PMS7003;20067;48.764;9.176;2024-03-23T12:21:01;6.00;6.00;0.00
26185;PMS7003;20067;48.764;9.176;2024-03-23T12:23:26;9.00;7.00;3.00
26185;PMS7003;20067;48.764;9.176;2024-03-23T12:25:53;4.00;4.00;1.00
26185;PMS7003;20067;48.764;9.176;2024-03-23T12:28:19;6.00;6.00;2.00
26185;PMS7003;20067;48.764;9.176;2024-03-23T12:30:45;6.50;6.25;1.00
26185;PMS7003;20067;48.764;9.176;2024-03-23T12:33:11;6.50;6.50;3.00
26185;PMS7003;20067;48.764;9.176;2024-03-23T12:35:38;6.00;4.00;1.00
26185;PMS7003;20067;48.764;9.176;2024-03-23T12:38:03;8.00;7.00;3.00
26185;PMS7003;20067;48.764;9.176;2024-03-23T12:40:30;10.00;8.50;3.00
26185;PMS7003;20067;48.764;9.176;2024-03-23T12:42:56;7.50;6.50;2.50
26185;PMS7003;20067;48.764;9.176;2024-03-23T12:45:23;7.00;6.00;1.00
26185;PMS7003;20067;48.764;9.176;2024-03-23T12:47:49;6.00;6.00;3.00
26185;PMS7003;20067;48.764;9.176;2024-03-23T12:50:17;6.50;6.50;1.00
26185;PMS7003;20067;48.764;9.176;2024-03-23T12:52:43;7.00;7.00;2.50
26185;PMS7003;20067;48.764;9.176;2024-03-23T12:55:10;10.00;6.50;1.00
26185;PMS7003;20067;48.764;9.176;2024-03-23T12:57:35;6.00;6.00;1.00
26185;PMS7003;20067;48.764;9.176;2024-03-23T13:00:02;7.00;5.50;1.50
26185;PMS7003;20067;48.764;9.176;2024-03-23T13:02:29;4.50;4.50;1.00
26185;PMS7003;20067;48.764;9.176;2024-03-23T13:04:56;6.25;6.25;2.50
26185;PMS7003;20067;48.764;9.176;2024-03-23T13:07:22;6.00;6.00;1.50
26185;PMS7003;20067;48.764;9.176;2024-03-23T13:09:50;6.00;6.00;1.00
26185;PMS7003;20067;48.764;9.176;2024-03-23T13:12:17;7.25;6.50;2.00
26185;PMS7003;20067;48.764;9.176;2024-03-23T13:14:45;8.50;7.00;3.00
26185;PMS7003;20067;48.764;9.176;2024-03-23T13:17:11;7.25;6.00;3.00
26185;PMS7003;20067;48.764;9.176;2024-03-23T13:19:38;8.50;8.50;2.00
26185;PMS7003;20067;48.764;9.176;2024-03-23T13:22:04;9.00;9.00;3.00
26185;PMS7003;20067;48.764;9.176;2024-03-23T13:24:31;10.00;9.00;3.00
26185;PMS7003;20067;48.764;9.176;2024-03-23T13:26:57;10.00;8.50;4.00
26185;PMS7003;20067;48.764;9.176;2024-03-23T13:29:24;10.00;10.00;4.00
26185;PMS7003;20067;48.764;9.176;2024-03-23T13:31:50;7.50;6.75;3.25
26185;PMS7003;20067;48.764;9.176;2024-03-23T13:34:17;7.00;7.00;3.00
26185;PMS7003;20067;48.764;9.176;2024-03-23T13:36:47;6.00;6.00;1.00
26185;PMS7003;20067;48.764;9.176;2024-03-23T13:39:14;6.00;6.00;3.00
26185;PMS7003;20067;48.764;9.176;2024-03-23T13:41:41;6.25;6.25;1.00
26185;PMS7003;20067;48.764;9.176;2024-03-23T13:44:11;7.00;5.50;0.00
26185;PMS7003;20067;48.764;9.176;2024-03-23T13:46:38;8.00;7.00;0.75
26185;PMS7003;20067;48.764;9.176;2024-03-23T13:49:07;9.00;6.00;1.00
26185;PMS7003;20067;48.764;9.176;2024-03-23T13:51:43;12.50;9.25;3.25
26185;PMS7003;20067;48.764;9.176;2024-03-23T13:54:12;5.25;5.25;1.00
26185;PMS7003;20067;48.764;9.176;2024-03-23T13:56:38;6.50;6.00;1.00
26185;PMS7003;20067;48.764;9.176;2024-03-23T13:59:05;6.25;5.25;1.00
26185;PMS7003;20067;48.764;9.176;2024-03-23T14:01:31;4.00;4.00;1.00
26185;PMS7003;20067;48.764;9.176;2024-03-23T14:03:58;5.00;5.00;1.00
26185;PMS7003;20067;48.764;9.176;2024-03-23T14:06:24;7.00;6.00;3.00
26185;PMS7003;20067;48.764;9.176;2024-03-23T14:08:50;4.50;4.50;1.00
26185;PMS7003;20067;48.764;9.176;2024-03-23T14:11:17;6.00;6.00;1.00
26185;PMS7003;20067;48.764;9.176;2024-03-23T14:13:45;8.50;8.50;3.00
26185;PMS7003;20067;48.764;9.176;2024-03-23T14:16:10;7.50;6.00;3.00
26185;PMS7003;20067;48.764;9.176;2024-03-23T14:18:37;8.00;8.00;3.50
26185;PMS7003;20067;48.764;9.176;2024-03-23T14:21:03;6.00;5.00;1.00
26185;PMS7003;20067;48.764;9.176;2024-03-23T14:23:30;6.00;6.00;1.00
26185;PMS7003;20067;48.764;9.176;2024-03-23T14:25:58;5.50;5.50;0.75
26185;PMS7003;20067;48.764;9.176;2024-03-23T14:28:24;6.00;6.00;3.00
26185;PMS7003;20067;48.764;9.176;2024-03-23T14:30:52;8.00;6.00;2.00
26185;PMS7003;20067;48.764;9.176;2024-03-23T14:33:21;6.50;6.50;2.00
26185;PMS7003;20067;48.764;9.176;2024-03-23T14:35:55;6.00;5.50;1.00
26185;PMS7003;20067;48.764;9.176;2024-03-23T14:38:22;5.50;5.50;1.00
26185;PMS7003;20067;48.764;9.176;2024-03-23T14:40:49;5.50;5.50;1.00
26185;PMS7003;20067;48.764;9.176;2024-03-23T14:43:15;4.00;4.00;0.75
26185;PMS7003;20067;48.764;9.176;2024-03-23T14:45:49;4.75;4.00;1.00
26185;PMS7003;20067;48.764;9.176;2024-03-23T14:48:31;6.75;6.00;1.00
26185;PMS7003;20067;48.764;9.176;2024-03-23T14:50:59;4.00;4.00;1.00
26185;PMS7003;20067;48.764;9.176;2024-03-23T14:53:25;3.75;3.75;0.00
26185;PMS7003;20067;48.764;9.176;2024-03-23T14:55:55;4.25;4.00;1.00
26185;PMS7003;20067;48.764;9.176;2024-03-23T14:58:22;5.75;4.75;1.00
26185;PMS7003;20067;48.764;9.176;2024-03-23T15:00:49;5.50;5.50;1.00
26185;PMS7003;20067;48.764;9.176;2024-03-23T15:03:16;5.50;5.50;1.00
26185;PMS7003;20067;48.764;9.176;2024-03-23T15:05:56;6.00;5.00;1.00
26185;PMS7003;20067;48.764;9.176;2024-03-23T15:08:23;6.00;6.00;1.00
26185;PMS7003;20067;48.764;9.176;2024-03-23T15:10:50;6.50;6.00;0.25
26185;PMS7003;20067;48.764;9.176;2024-03-23T15:13:16;6.50;6.50;1.00
26185;PMS7003;20067;48.764;9.176;2024-03-23T15:15:43;6.00;3.75;0.00
26185;PMS7003;20067;48.764;9.176;2024-03-23T15:18:13;3.00;3.00;0.00
26185;PMS7003;20067;48.764;9.176;2024-03-23T15:20:41;4.00;3.50;0.00
26185;PMS7003;20067;48.764;9.176;2024-03-23T15:23:07;6.00;4.00;0.00
26185;PMS7003;20067;48.764;9.176;2024-03-23T15:25:34;3.00;3.00;0.00
26185;PMS7003;20067;48.764;9.176;2024-03-23T15:27:59;4.00;3.00;0.00